Time;durP1;ratioP1;P1;durP2;ratioP2;P2;SDS_P1;SDS_P2;PMS_P1;PMS_P2;Temp;Humidity;BMP_temperature;BMP_pressure;BME280_temperature;BME280_humidity;BME280_pressure;Samples;Min_cycle;Max_cycle;Signal;HPM_P1;HPM_P2
2023/12/11 00:01:35;;;;;;;60.92;22.88;;;;;;;1.34;100.00;100139.47;5093160;28;20146;-42
2023/12/11 00:04:04;;;;;;;57.35;22.10;;;;;;;1.55;100.00;100141.59;5093477;28;20044;-41
2023/12/11 00:06:33;;;;;;;59.30;22.92;;;;;;;1.48;100.00;100129.50;5093290;28;20050;-40
2023/12/11 00:09:03;;;;;;;73.47;23.25;;;;;;;1.42;100.00;100127.88;5093047;28;20048;-42
2023/12/11 00:11:32;;;;;;;66.90;24.20;;;;;;;1.48;100.00;100121.63;5093139;28;20067;-41
2023/12/11 00:14:01;;;;;;;74.40;24.35;;;;;;;1.59;100.00;100119.56;5092911;28;20131;-42
2023/12/11 00:16:31;;;;;;;66.40;24.88;;;;;;;1.70;100.00;100111.41;5093332;28;20048;-40
2023/12/11 00:19:00;;;;;;;67.97;23.88;;;;;;;1.83;100.00;100107.53;5093087;28;20070;-44
2023/12/11 00:21:28;;;;;;;66.05;21.85;;;;;;;1.62;100.00;100106.34;5092438;28;20051;-43
2023/12/11 00:23:57;;;;;;;67.75;21.92;;;;;;;1.59;100.00;100101.16;5092970;28;20055;-43
2023/12/11 00:26:27;;;;;;;60.78;21.52;;;;;;;1.66;100.00;100094.84;5092658;28;20050;-46
2023/12/11 00:28:55;;;;;;;63.40;22.42;;;;;;;1.73;100.00;100085.88;5092944;28;20052;-41
2023/12/11 00:31:23;;;;;;;58.42;21.83;;;;;;;1.82;100.00;100074.25;5092883;28;20060;-43
2023/12/11 00:33:52;;;;;;;59.58;20.88;;;;;;;1.82;100.00;100074.25;5092515;28;20055;-43
2023/12/11 00:36:20;;;;;;;58.75;20.98;;;;;;;1.23;100.00;100083.69;5092641;28;20131;-41
2023/12/11 00:38:50;;;;;;;62.78;21.52;;;;;;;1.30;100.00;100080.88;5092701;28;20408;-42
2023/12/11 00:41:18;;;;;;;61.78;20.55;;;;;;;1.32;100.00;100089.59;5092479;28;20076;-40
2023/12/11 00:43:49;;;;;;;67.18;21.35;;;;;;;1.30;100.00;100087.91;5092554;28;20044;-41
2023/12/11 00:46:21;;;;;;;55.75;20.80;;;;;;;1.35;100.00;100078.13;5092443;28;20238;-41
2023/12/11 00:48:49;;;;;;;57.92;20.40;;;;;;;1.53;100.00;100087.31;5092441;28;20134;-41
2023/12/11 00:51:18;;;;;;;55.67;21.40;;;;;;;1.71;100.00;100077.16;5092423;28;20117;-40
2023/12/11 00:53:47;;;;;;;58.72;21.80;;;;;;;1.30;100.00;100082.66;5092078;28;20059;-40
2023/12/11 00:56:15;;;;;;;51.92;20.52;;;;;;;1.22;100.00;100084.59;5092087;28;20048;-41
2023/12/11 00:58:44;;;;;;;59.67;20.25;;;;;;;1.12;100.00;100076.06;5092186;28;20393;-41
2023/12/11 01:01:14;;;;;;;51.53;20.80;;;;;;;1.31;100.00;100063.34;5092229;28;20048;-42
2023/12/11 01:03:42;;;;;;;59.95;20.88;;;;;;;1.42;100.00;100066.56;5092039;28;20055;-41
2023/12/11 01:06:11;;;;;;;66.13;21.27;;;;;;;1.35;100.00;100070.25;5091851;28;20048;-41
2023/12/11 01:08:40;;;;;;;48.78;20.73;;;;;;;1.46;100.00;100076.09;5092389;28;20422;-42
2023/12/11 01:11:09;;;;;;;57.95;21.85;;;;;;;1.57;100.00;100074.06;5091978;28;20086;-41
2023/12/11 01:13:37;;;;;;;59.88;21.60;;;;;;;1.48;100.00;100057.66;5091988;28;20048;-42
2023/12/11 01:16:07;;;;;;;60.38;21.92;;;;;;;1.37;100.00;100061.44;5092074;28;20048;-42
2023/12/11 01:18:37;;;;;;;57.13;22.08;;;;;;;1.48;100.00;100070.81;5092241;28;20044;-39
2023/12/11 01:21:05;;;;;;;64.07;22.67;;;;;;;1.25;100.00;100076.63;5092526;28;20054;-41
2023/12/11 01:23:34;;;;;;;63.25;23.77;;;;;;;1.22;100.00;100068.84;5093226;28;20040;-40
2023/12/11 01:26:02;;;;;;;71.45;24.98;;;;;;;1.28;100.00;100068.69;5092254;28;20074;-41
2023/12/11 01:28:31;;;;;;;55.03;23.60;;;;;;;1.35;100.00;100072.88;5092699;28;20075;-41
2023/12/11 01:30:59;;;;;;;58.70;23.70;;;;;;;1.33;100.00;100069.41;5092017;28;20101;-41
2023/12/11 01:33:28;;;;;;;59.88;23.90;;;;;;;1.38;100.00;100062.31;5090933;28;20155;-42
2023/12/11 01:35:58;;;;;;;69.63;25.35;;;;;;;1.30;100.00;100059.84;5092157;28;20051;-43
2023/12/11 01:38:26;;;;;;;59.47;24.17;;;;;;;1.37;100.00;100047.44;5092375;28;20097;-40
2023/12/11 01:40:55;;;;;;;58.63;22.48;;;;;;;1.39;100.00;100043.00;5092768;28;20105;-40
2023/12/11 01:43:24;;;;;;;63.40;23.98;;;;;;;1.16;100.00;100035.72;5092801;28;20447;-41
2023/12/11 01:46:03;;;;;;;59.92;22.77;;;;;;;1.14;100.00;100033.09;5092191;28;20416;-42
2023/12/11 01:48:32;;;;;;;63.45;21.65;;;;;;;1.00;100.00;100027.34;5091821;28;20040;-42
2023/12/11 01:51:03;;;;;;;49.75;20.92;;;;;;;1.13;100.00;100031.38;5091288;28;20123;-42
2023/12/11 01:53:33;;;;;;;65.78;23.33;;;;;;;0.95;100.00;100028.34;5091613;28;20339;-40
2023/12/11 01:56:02;;;;;;;57.75;23.08;;;;;;;1.15;100.00;100040.06;5092077;28;20493;-41
2023/12/11 01:58:31;;;;;;;53.47;22.05;;;;;;;1.34;100.00;100034.34;5092317;28;20051;-41
2023/12/11 02:00:59;;;;;;;62.65;24.05;;;;;;;1.37;100.00;100040.41;5092742;28;20429;-41
2023/12/11 02:03:28;;;;;;;51.10;21.88;;;;;;;1.23;100.00;100023.25;5093125;28;20048;-40
2023/12/11 02:05:57;;;;;;;56.25;22.25;;;;;;;1.33;100.00;100022.13;5091698;28;20449;-40
2023/12/11 02:08:27;;;;;;;53.45;22.15;;;;;;;1.34;100.00;100027.31;5091345;28;20056;-41
2023/12/11 02:10:56;;;;;;;54.85;22.42;;;;;;;1.32;100.00;100026.50;5091287;28;20085;-41
2023/12/11 02:13:24;;;;;;;63.50;23.30;;;;;;;1.07;100.00;100026.28;5091070;28;20048;-45
2023/12/11 02:15:53;;;;;;;55.70;22.13;;;;;;;1.19;100.00;100019.88;5091354;28;20083;-41
2023/12/11 02:18:21;;;;;;;50.67;21.23;;;;;;;1.11;100.00;100022.69;5091259;28;20040;-41
2023/12/11 02:20:50;;;;;;;56.38;22.45;;;;;;;1.17;100.00;100021.66;5091141;28;20166;-41
2023/12/11 02:23:27;;;;;;;62.40;23.73;;;;;;;0.85;100.00;100014.56;5091045;28;20103;-42
2023/12/11 02:26:08;;;;;;;61.00;22.77;;;;;;;0.82;100.00;100015.53;5090705;28;20063;-41
2023/12/11 02:28:37;;;;;;;50.40;22.33;;;;;;;0.95;100.00;100020.47;5090882;28;20493;-41
2023/12/11 02:31:06;;;;;;;53.42;22.75;;;;;;;1.05;100.00;100017.56;5091055;28;20470;-41
2023/12/11 02:33:35;;;;;;;45.35;20.95;;;;;;;1.11;100.00;100022.69;5090856;28;20044;-41
2023/12/11 02:36:05;;;;;;;48.17;21.75;;;;;;;1.15;100.00;100021.69;5090706;28;20131;-41
2023/12/11 02:38:33;;;;;;;50.38;21.20;;;;;;;1.11;100.00;100016.56;5090693;28;20668;-40
2023/12/11 02:41:02;;;;;;;51.70;21.42;;;;;;;0.87;100.00;100007.53;5090969;28;20044;-41
2023/12/11 02:43:31;;;;;;;51.42;21.67;;;;;;;1.02;100.00;100001.91;5091237;28;20052;-40
2023/12/11 02:46:00;;;;;;;46.03;20.50;;;;;;;0.81;100.00;99995.41;5094580;28;20044;-40
2023/12/11 02:48:28;;;;;;;45.45;21.02;;;;;;;0.79;100.00;99983.22;5094652;28;20044;-41
2023/12/11 02:50:57;;;;;;;49.00;22.15;;;;;;;0.67;100.00;99979.13;5094615;28;20044;-40
2023/12/11 02:53:25;;;;;;;45.67;22.70;;;;;;;0.89;100.00;99976.84;5094904;28;20040;-41
2023/12/11 02:55:54;;;;;;;50.05;21.83;;;;;;;1.06;100.00;99977.28;5094619;28;20078;-41
2023/12/11 02:58:22;;;;;;;45.28;21.48;;;;;;;1.14;100.00;99972.66;5094511;28;20056;-40
2023/12/11 03:00:52;;;;;;;47.67;20.67;;;;;;;1.24;100.00;99975.06;5094638;28;20135;-41
2023/12/11 03:03:20;;;;;;;47.65;21.58;;;;;;;1.20;100.00;99981.31;5094262;28;20606;-41
2023/12/11 03:05:49;;;;;;;43.78;20.85;;;;;;;1.18;100.00;99975.25;5093307;28;20078;-40
2023/12/11 03:08:17;;;;;;;42.60;19.88;;;;;;;1.34;100.00;99981.78;5094510;28;20050;-40
2023/12/11 03:10:46;;;;;;;40.17;19.73;;;;;;;1.28;100.00;99974.97;5094091;28;20527;-41
2023/12/11 03:13:17;;;;;;;41.83;19.75;;;;;;;1.30;100.00;99972.28;5094348;28;20044;-40
2023/12/11 03:15:45;;;;;;;43.78;19.52;;;;;;;1.29;100.00;99973.19;5094069;28;20074;-41
2023/12/11 03:18:15;;;;;;;41.33;19.67;;;;;;;1.50;100.00;99961.22;5094195;28;20412;-41
2023/12/11 03:20:44;;;;;;;42.25;20.15;;;;;;;1.49;100.00;99959.50;5094311;28;20055;-40
2023/12/11 03:23:12;;;;;;;44.30;20.02;;;;;;;1.23;100.00;99947.94;5094155;28;20067;-41
2023/12/11 03:25:40;;;;;;;43.33;19.63;;;;;;;1.50;100.00;99956.81;5093700;28;20056;-42
2023/12/11 03:28:08;;;;;;;39.95;19.60;;;;;;;1.68;100.00;99956.31;5093615;28;20044;-41
2023/12/11 03:30:37;;;;;;;41.67;18.67;;;;;;;1.75;100.00;99948.25;5093692;28;20079;-41
2023/12/11 03:33:05;;;;;;;41.85;20.58;;;;;;;1.77;100.00;99951.69;5094135;28;20052;-41
2023/12/11 03:35:35;;;;;;;41.85;20.40;;;;;;;1.77;100.00;99954.31;5093772;28;20105;-46
2023/12/11 03:38:03;;;;;;;43.67;20.65;;;;;;;1.71;100.00;99956.22;5093833;28;20086;-41
2023/12/11 03:40:32;;;;;;;39.63;19.45;;;;;;;1.76;100.00;99963.97;5093585;28;20412;-41
2023/12/11 03:43:01;;;;;;;43.65;21.13;;;;;;;1.77;100.00;99964.84;5093554;28;20052;-41
2023/12/11 03:45:29;;;;;;;42.83;20.38;;;;;;;1.85;100.00;99971.63;5093725;28;20127;-40
2023/12/11 03:47:57;;;;;;;41.50;19.00;;;;;;;1.95;100.00;99964.31;5093502;28;20485;-40
2023/12/11 03:50:26;;;;;;;35.55;18.75;;;;;;;2.03;100.00;99967.59;5093544;28;20096;-40
2023/12/11 03:52:55;;;;;;;41.72;19.73;;;;;;;2.03;100.00;99970.22;5093607;28;20094;-41
2023/12/11 03:55:24;;;;;;;42.83;20.45;;;;;;;2.04;100.00;99971.94;5092459;28;20067;-41
2023/12/11 03:57:52;;;;;;;39.75;19.50;;;;;;;2.03;100.00;99977.22;5093292;28;20084;-41
2023/12/11 04:00:22;;;;;;;40.55;19.42;;;;;;;2.06;100.00;99993.78;5093401;28;20146;-41
2023/12/11 04:02:50;;;;;;;43.53;20.20;;;;;;;2.07;100.00;99985.00;5093403;28;20047;-41
2023/12/11 04:05:19;;;;;;;40.83;20.17;;;;;;;2.13;100.00;99982.19;5093215;28;20050;-41
2023/12/11 04:07:47;;;;;;;43.78;20.35;;;;;;;2.14;100.00;99983.91;5093136;28;20084;-41
2023/12/11 04:10:17;;;;;;;41.92;20.95;;;;;;;2.12;100.00;99979.56;5092977;28;20044;-41
2023/12/11 04:12:45;;;;;;;40.80;20.50;;;;;;;2.06;100.00;99983.28;5093144;28;20493;-40
2023/12/11 04:15:13;;;;;;;48.25;21.00;;;;;;;1.97;100.00;99973.00;5093150;28;20044;-42
2023/12/11 04:17:43;;;;;;;46.92;20.65;;;;;;;1.87;100.00;99976.81;5092899;28;20040;-41
2023/12/11 04:20:11;;;;;;;48.60;22.63;;;;;;;1.76;100.00;99971.00;5092727;28;20044;-41
2023/12/11 04:22:40;;;;;;;50.60;22.08;;;;;;;1.66;100.00;99971.28;5092677;28;20048;-42
2023/12/11 04:25:07;;;;;;;50.15;21.98;;;;;;;1.69;100.00;99967.69;5092701;28;20044;-41
2023/12/11 04:27:37;;;;;;;52.85;23.20;;;;;;;1.76;100.00;99969.25;5092825;28;20044;-41
2023/12/11 04:30:07;;;;;;;52.05;22.02;;;;;;;1.92;100.00;99961.75;5092573;28;20090;-41
2023/12/11 04:32:35;;;;;;;50.90;22.55;;;;;;;1.96;100.00;99953.75;5092635;28;20048;-42
2023/12/11 04:35:05;;;;;;;48.28;22.63;;;;;;;2.00;100.00;99947.47;5092638;28;20055;-40
2023/12/11 04:37:33;;;;;;;49.35;21.67;;;;;;;1.90;100.00;99939.91;5092569;28;20113;-40
2023/12/11 04:40:03;;;;;;;48.10;22.77;;;;;;;1.82;100.00;99931.38;5092467;28;20047;-41
2023/12/11 04:42:31;;;;;;;51.67;23.58;;;;;;;1.96;100.00;99929.22;5092509;28;20044;-41
2023/12/11 04:45:01;;;;;;;52.28;22.42;;;;;;;1.78;100.00;99933.25;5092497;28;20135;-40
2023/12/11 04:47:30;;;;;;;53.20;22.48;;;;;;;1.81;100.00;99935.78;5092192;28;20176;-40
2023/12/11 04:49:58;;;;;;;54.50;23.30;;;;;;;1.72;100.00;99931.63;5092110;28;20484;-42
2023/12/11 04:52:27;;;;;;;53.97;23.67;;;;;;;1.68;100.00;99937.91;5092184;28;20748;-40
2023/12/11 04:54:57;;;;;;;55.17;23.63;;;;;;;1.84;100.00;99942.72;5092307;28;20044;-42
2023/12/11 04:57:26;;;;;;;56.13;24.65;;;;;;;1.93;100.00;99945.94;5092209;28;20051;-41
2023/12/11 04:59:54;;;;;;;49.60;24.35;;;;;;;1.80;100.00;99943.72;5091930;28;20048;-40
2023/12/11 05:02:24;;;;;;;56.90;24.73;;;;;;;1.84;100.00;99940.09;5091981;28;20094;-40
2023/12/11 05:04:53;;;;;;;59.65;25.10;;;;;;;1.96;100.00;99942.34;5092099;28;20481;-41
2023/12/11 05:07:22;;;;;;;57.03;24.45;;;;;;;1.99;100.00;99952.78;5091841;28;20048;-41
2023/12/11 05:09:50;;;;;;;54.45;24.67;;;;;;;1.93;100.00;99966.09;5091928;28;20487;-41
2023/12/11 05:12:18;;;;;;;55.33;23.90;;;;;;;2.08;100.00;99981.44;5091990;28;20397;-41
2023/12/11 05:14:47;;;;;;;60.55;25.50;;;;;;;2.15;100.00;99977.72;5091826;28;20122;-41
2023/12/11 05:17:15;;;;;;;51.35;22.92;;;;;;;2.09;100.00;99970.00;5091894;28;20044;-41
2023/12/11 05:19:45;;;;;;;47.22;22.58;;;;;;;2.04;100.00;99950.88;5091890;28;20050;-40
2023/12/11 05:22:14;;;;;;;49.13;22.77;;;;;;;1.94;100.00;99944.19;5092012;28;20048;-41
2023/12/11 05:24:42;;;;;;;49.03;23.27;;;;;;;2.03;100.00;99938.66;5091804;28;20084;-41
2023/12/11 05:27:12;;;;;;;44.08;21.67;;;;;;;2.09;100.00;99935.81;5091504;28;20160;-40
2023/12/11 05:29:40;;;;;;;48.03;22.27;;;;;;;2.20;100.00;99928.44;5091572;28;20048;-41
2023/12/11 05:32:10;;;;;;;47.35;22.35;;;;;;;2.00;100.00;99931.69;5092030;28;20143;-42
2023/12/11 05:34:38;;;;;;;46.58;21.42;;;;;;;2.09;100.00;99933.19;5091936;28;20044;-40
2023/12/11 05:37:08;;;;;;;42.90;21.65;;;;;;;2.16;100.00;99939.97;5091628;28;20040;-41
2023/12/11 05:39:37;;;;;;;43.00;21.00;;;;;;;2.09;100.00;99956.84;5091325;28;20052;-40
2023/12/11 05:42:08;;;;;;;46.17;22.48;;;;;;;2.09;100.00;99948.97;5091225;28;20054;-41
2023/12/11 05:44:37;;;;;;;44.10;21.85;;;;;;;2.25;100.00;99931.81;5091178;28;20105;-41
2023/12/11 05:47:05;;;;;;;42.17;21.13;;;;;;;2.22;100.00;99913.50;5091318;28;20048;-41
2023/12/11 05:49:34;;;;;;;44.08;20.35;;;;;;;2.32;100.00;99905.28;5091246;28;20451;-42
2023/12/11 05:52:02;;;;;;;41.97;19.88;;;;;;;2.45;100.00;99890.81;5091284;28;20101;-40
2023/12/11 05:54:32;;;;;;;39.20;19.92;;;;;;;2.48;100.00;99895.97;5091112;28;20105;-42
2023/12/11 05:57:00;;;;;;;43.05;20.38;;;;;;;2.39;100.00;99897.13;5089903;28;20083;-41
2023/12/11 05:59:29;;;;;;;38.13;20.00;;;;;;;2.16;100.00;99887.34;5091309;28;20047;-41
2023/12/11 06:01:57;;;;;;;48.85;22.30;;;;;;;2.15;100.00;99888.28;5091332;28;20109;-40
2023/12/11 06:04:26;;;;;;;41.80;20.80;;;;;;;2.28;100.00;99936.09;5091134;28;20051;-40
2023/12/11 06:06:54;;;;;;;41.30;20.70;;;;;;;2.36;100.00;99955.16;5090936;28;20526;-41
2023/12/11 06:09:23;;;;;;;44.47;21.10;;;;;;;2.46;100.00;99945.19;5090772;28;20044;-41
2023/12/11 06:11:54;;;;;;;41.13;21.23;;;;;;;2.56;100.00;99941.34;5091248;28;20047;-40
2023/12/11 06:14:23;;;;;;;46.45;23.08;;;;;;;2.44;100.00;99939.13;5091203;28;20458;-41
2023/12/11 06:16:51;;;;;;;47.10;23.05;;;;;;;2.36;100.00;99943.75;5091144;28;20040;-39
2023/12/11 06:19:20;;;;;;;44.17;21.67;;;;;;;2.32;100.00;99936.84;5092761;28;20044;-40
2023/12/11 06:21:49;;;;;;;48.75;22.08;;;;;;;2.34;100.00;99935.06;5095217;28;20051;-40
2023/12/11 06:24:17;;;;;;;43.42;22.10;;;;;;;2.32;100.00;99947.38;5095038;28;20512;-40
2023/12/11 06:26:46;;;;;;;45.92;22.50;;;;;;;2.24;100.00;99961.66;5094655;28;20409;-40
2023/12/11 06:29:15;;;;;;;45.03;22.25;;;;;;;2.25;100.00;99978.31;5094743;28;20048;-40
2023/12/11 06:31:47;;;;;;;56.20;25.83;;;;;;;2.13;100.00;99984.81;5094967;28;20504;-40
2023/12/11 06:34:15;;;;;;;50.05;24.70;;;;;;;2.41;100.00;99978.69;5095100;28;20070;-41
2023/12/11 06:36:48;;;;;;;48.58;24.75;;;;;;;2.35;100.00;99973.63;5093918;28;20048;-40
2023/12/11 06:39:19;;;;;;;48.75;23.83;;;;;;;2.25;100.00;99968.66;5093960;28;20512;-39
2023/12/11 06:41:47;;;;;;;44.65;23.15;;;;;;;2.23;100.00;99970.47;5094094;28;20067;-43
2023/12/11 06:44:17;;;;;;;47.22;23.48;;;;;;;2.15;100.00;99955.81;5094201;28;20055;-42
2023/12/11 06:46:46;;;;;;;45.53;21.98;;;;;;;1.95;100.00;99949.38;5093283;28;20443;-44
2023/12/11 06:49:14;;;;;;;43.97;22.35;;;;;;;2.09;100.00;99935.81;5094384;28;20060;-40
2023/12/11 06:51:43;;;;;;;44.63;21.92;;;;;;;2.09;100.00;99924.44;5094272;28;20047;-43
2023/12/11 06:54:14;;;;;;;49.20;22.90;;;;;;;2.11;100.00;99923.47;5094322;28;20043;-40
2023/12/11 06:56:43;;;;;;;51.72;22.40;;;;;;;2.08;100.00;99918.31;5092045;28;20044;-40
2023/12/11 06:59:11;;;;;;;45.75;22.80;;;;;;;2.20;100.00;99917.91;5094063;28;20048;-41
2023/12/11 07:01:41;;;;;;;44.13;21.75;;;;;;;2.15;100.00;99911.94;5094172;28;20506;-41
2023/12/11 07:04:10;;;;;;;45.10;22.73;;;;;;;2.20;100.00;99903.91;5093958;28;20161;-39
2023/12/11 07:06:38;;;;;;;44.45;22.50;;;;;;;2.11;100.00;99885.75;5091974;28;20044;-39
2023/12/11 07:09:10;;;;;;;47.53;22.33;;;;;;;2.22;100.00;99895.06;5093784;28;20480;-40
2023/12/11 07:11:41;;;;;;;46.88;22.88;;;;;;;2.28;100.00;99894.84;5094180;28;20056;-41
2023/12/11 07:14:09;;;;;;;47.33;22.20;;;;;;;2.31;100.00;99888.63;5093992;28;20147;-39
2023/12/11 07:16:38;;;;;;;46.05;21.58;;;;;;;2.36;100.00;99893.75;5091605;28;20040;-39
2023/12/11 07:19:08;;;;;;;42.33;20.83;;;;;;;2.34;100.00;99906.97;5093464;28;20504;-41
2023/12/11 07:21:37;;;;;;;37.22;19.98;;;;;;;2.52;100.00;99916.91;5094065;28;20226;-39
2023/12/11 07:24:05;;;;;;;39.47;19.20;;;;;;;2.48;100.00;99922.31;5093529;28;20062;-40
2023/12/11 07:26:40;;;;;;;43.28;20.77;;;;;;;2.62;100.00;99924.50;5092394;28;20067;-42
2023/12/11 07:29:08;;;;;;;38.80;20.70;;;;;;;2.50;100.00;99915.22;5093197;28;20048;-40
2023/12/11 07:31:36;;;;;;;41.25;20.00;;;;;;;2.31;100.00;99907.03;5093696;28;20606;-41
2023/12/11 07:34:05;;;;;;;41.55;20.05;;;;;;;2.24;100.00;99887.97;5093465;28;20040;-39
2023/12/11 07:36:35;;;;;;;42.75;19.90;;;;;;;2.50;100.00;99915.22;5091689;28;20054;-41
2023/12/11 07:39:03;;;;;;;42.25;20.98;;;;;;;2.68;100.00;99940.94;5093056;28;20047;-40
2023/12/11 07:41:32;;;;;;;37.83;20.33;;;;;;;2.77;100.00;99966.97;5093289;28;20101;-40
2023/12/11 07:44:00;;;;;;;36.90;18.92;;;;;;;2.91;100.00;99963.91;5093591;28;20041;-40
2023/12/11 07:46:34;;;;;;;36.88;19.38;;;;;;;3.03;100.00;99955.59;5091701;28;20119;-41
2023/12/11 07:49:08;;;;;;;37.55;18.42;;;;;;;2.89;100.00;99949.91;5092864;28;20056;-40
2023/12/11 07:51:40;;;;;;;37.05;18.45;;;;;;;3.01;100.00;99936.34;5093327;28;20048;-40
2023/12/11 07:54:09;;;;;;;35.22;17.70;;;;;;;3.14;100.00;99935.00;5091644;28;20044;-40
2023/12/11 07:56:40;;;;;;;36.03;18.38;;;;;;;2.95;100.00;99927.78;5091769;28;20082;-42
2023/12/11 07:59:14;;;;;;;33.97;17.95;;;;;;;2.90;100.00;99911.28;5093319;28;20094;-40
2023/12/11 08:01:45;;;;;;;34.85;17.52;;;;;;;2.79;100.00;99901.94;5093536;28;20052;-40
2023/12/11 08:04:18;;;;;;;33.55;17.38;;;;;;;2.87;100.00;99893.78;5093380;28;20040;-41
2023/12/11 08:06:50;;;;;;;;;;;;;;;2.74;100.00;99882.81;5091823;28;20096;-40
2023/12/11 08:09:18;;;;;;;34.00;17.23;;;;;;;2.77;100.00;99892.38;5094949;28;20377;-40
2023/12/11 08:11:46;;;;;;;36.83;18.48;;;;;;;2.71;100.00;99906.63;5093427;28;20098;-40
2023/12/11 08:14:16;;;;;;;36.35;18.58;;;;;;;2.68;100.00;99897.94;5093675;28;20131;-42
2023/12/11 08:16:44;;;;;;;38.75;18.65;;;;;;;2.69;100.00;99883.88;5091452;28;20493;-41
2023/12/11 08:19:14;;;;;;;37.58;18.92;;;;;;;2.68;100.00;99888.28;5093339;28;20452;-40
2023/12/11 08:21:43;;;;;;;37.80;19.50;;;;;;;2.65;100.00;99872.59;5093471;28;20040;-40
2023/12/11 08:24:13;;;;;;;41.90;20.23;;;;;;;2.68;100.00;99851.41;5091625;28;20401;-40
2023/12/11 08:26:41;;;;;;;39.53;18.60;;;;;;;2.52;100.00;99851.09;5088131;28;20052;-39
2023/12/11 08:29:10;;;;;;;41.92;20.52;;;;;;;2.53;100.00;99844.03;5083417;28;20443;-40
2023/12/11 08:31:39;;;;;;;36.25;18.95;;;;;;;2.48;100.00;99833.66;5081797;28;20040;-40
2023/12/11 08:34:07;;;;;;;42.42;20.20;;;;;;;2.33;100.00;99814.91;5096542;28;20035;-40
2023/12/11 08:36:36;;;;;;;43.13;21.35;;;;;;;2.39;100.00;99812.03;5094083;28;20412;-40
2023/12/11 08:39:05;;;;;;;40.15;20.65;;;;;;;2.39;100.00;99812.03;5091611;28;20532;-40
2023/12/11 08:41:36;;;;;;;45.17;21.17;;;;;;;2.54;100.00;99824.69;5091663;28;20089;-40
2023/12/11 08:44:05;;;;;;;44.58;20.25;;;;;;;2.49;100.00;99842.41;5092001;28;20044;-39
2023/12/11 08:46:34;;;;;;;42.58;20.77;;;;;;;2.56;100.00;99851.81;5090385;28;20052;-40
2023/12/11 08:49:05;;;;;;;39.72;20.65;;;;;;;2.60;100.00;99863.97;5091652;28;20052;-41
2023/12/11 08:51:34;;;;;;;44.53;21.00;;;;;;;2.73;100.00;99843.38;5092264;28;20048;-41
2023/12/11 08:54:04;;;;;;;37.92;19.63;;;;;;;2.70;100.00;99846.97;5091899;28;20619;-39
2023/12/11 08:56:34;;;;;;;41.58;20.33;;;;;;;2.62;100.00;99850.78;5090203;28;20066;-41
2023/12/11 08:59:02;;;;;;;39.97;21.00;;;;;;;2.62;100.00;99856.91;5091107;28;20044;-39
2023/12/11 09:01:34;;;;;;;44.45;20.60;;;;;;;2.66;100.00;99853.22;5092118;28;20232;-40
2023/12/11 09:04:04;;;;;;;45.80;20.05;;;;;;;2.59;100.00;99862.25;5099706;28;20043;-40
2023/12/11 09:06:33;;;;;;;41.50;21.08;;;;;;;2.62;100.00;99846.38;5093730;28;20113;-41
2023/12/11 09:09:02;;;;;;;38.45;19.52;;;;;;;2.83;100.00;99840.34;5091145;28;20087;-40
2023/12/11 09:11:30;;;;;;;42.30;20.92;;;;;;;2.61;100.00;99838.53;5091434;28;20044;-41
2023/12/11 09:14:01;;;;;;;41.47;21.00;;;;;;;2.67;100.00;99831.25;5091726;28;20489;-40
2023/12/11 09:16:29;;;;;;;41.70;20.23;;;;;;;2.60;100.00;99821.84;5089870;28;20121;-41
2023/12/11 09:19:01;;;;;;;44.28;21.70;;;;;;;2.48;100.00;99833.66;5091431;28;20080;-39
2023/12/11 09:21:29;;;;;;;43.88;21.33;;;;;;;2.47;100.00;99838.97;5091590;28;20055;-40
2023/12/11 09:23:57;;;;;;;44.58;22.25;;;;;;;2.26;100.00;99849.31;5091546;28;20141;-40
2023/12/11 09:26:26;;;;;;;47.88;22.25;;;;;;;2.42;100.00;99840.91;5089641;28;20467;-40
2023/12/11 09:28:54;;;;;;;45.83;22.05;;;;;;;2.53;100.00;99828.25;5091157;28;20085;-40
2023/12/11 09:31:25;;;;;;;45.05;22.73;;;;;;;2.37;100.00;99835.78;5091244;28;20040;-41
2023/12/11 09:33:53;;;;;;;52.40;24.45;;;;;;;2.53;100.00;99826.47;5091723;28;20044;-39
2023/12/11 09:36:22;;;;;;;50.08;23.65;;;;;;;2.49;100.00;99826.59;5089264;28;20550;-41
2023/12/11 09:38:50;;;;;;;46.67;22.60;;;;;;;2.49;100.00;99835.38;5090763;28;20075;-40
2023/12/11 09:41:19;;;;;;;51.92;24.83;;;;;;;2.56;100.00;99821.09;5091358;28;20135;-41
2023/12/11 09:43:49;;;;;;;51.60;25.90;;;;;;;2.50;100.00;99813.38;5091676;28;20071;-40
2023/12/11 09:46:20;;;;;;;54.70;25.73;;;;;;;2.68;100.00;99808.41;5090721;28;20048;-40
2023/12/11 09:48:50;;;;;;;56.28;26.35;;;;;;;2.57;100.00;99803.53;5091544;28;20080;-40
2023/12/11 09:51:19;;;;;;;52.17;25.40;;;;;;;2.53;100.00;99804.56;5091592;28;20424;-40
2023/12/11 09:53:49;;;;;;;57.72;26.98;;;;;;;2.61;100.00;99807.78;5090171;28;20374;-40
2023/12/11 09:56:18;;;;;;;56.33;26.38;;;;;;;2.68;100.00;99809.25;5089191;28;20104;-41
2023/12/11 09:58:48;;;;;;;53.78;27.25;;;;;;;3.03;100.00;99815.94;5090755;28;20051;-40
2023/12/11 10:01:17;;;;;;;51.00;23.95;;;;;;;3.02;100.00;99816.00;5090977;28;20048;-41
2023/12/11 10:03:45;;;;;;;50.72;25.50;;;;;;;3.00;100.00;99815.19;5090620;28;20051;-40
2023/12/11 10:06:15;;;;;;;48.42;24.98;;;;;;;3.18;100.00;99817.13;5087403;28;20472;-40
2023/12/11 10:08:47;;;;;;;51.25;24.00;;;;;;;3.21;100.00;99809.13;5090823;28;20439;-40
2023/12/11 10:11:17;;;;;;;49.88;24.67;;;;;;;3.34;100.00;99804.25;5090457;28;20499;-41
2023/12/11 10:13:46;;;;;;;48.38;24.45;;;;;;;3.49;100.00;99803.69;5090702;28;20131;-41
2023/12/11 10:16:30;;;;;;;47.08;24.83;;;;;;;3.54;100.00;99800.84;5089098;28;20105;-40
2023/12/11 10:19:00;;;;;;;47.30;24.25;;;;;;;3.73;100.00;99792.16;5090368;28;20051;-41
2023/12/11 10:21:39;;;;;;;51.70;24.27;;;;;;;3.69;100.00;99795.84;5090879;28;20048;-42
2023/12/11 10:24:10;;;;;;;47.50;23.92;;;;;;;3.65;100.00;99788.97;5091021;28;20454;-40
2023/12/11 10:26:45;;;;;;;53.63;24.02;;;;;;;3.69;100.00;99785.28;5088687;28;20516;-40
2023/12/11 10:29:21;;;;;;;47.60;23.92;;;;;;;3.82;100.00;99780.38;5090134;28;20456;-40
2023/12/11 10:31:49;;;;;;;55.60;25.25;;;;;;;3.90;100.00;99780.09;5090872;28;20466;-40
2023/12/11 10:34:18;;;;;;;48.90;24.48;;;;;;;3.97;100.00;99774.50;5090780;28;20080;-41
2023/12/11 10:36:51;;;;;;;49.03;24.73;;;;;;;3.98;100.00;99770.94;5087500;28;20105;-40
2023/12/11 10:39:20;;;;;;;45.63;24.48;;;;;;;4.06;100.00;99769.78;5090009;28;20548;-41
2023/12/11 10:41:52;;;;;;;48.05;24.60;;;;;;;3.91;100.00;99763.31;5091115;28;20044;-42
2023/12/11 10:44:25;;;;;;;46.72;25.00;;;;;;;4.02;100.00;99761.09;5090762;28;20101;-42
2023/12/11 10:47:14;;;;;;;50.22;24.92;;;;;;;3.93;100.00;99743.00;5090273;28;20063;-41
2023/12/11 10:49:43;;;;;;;46.00;25.35;;;;;;;3.81;100.00;99731.19;5090312;28;20485;-40
2023/12/11 10:52:13;;;;;;;43.22;23.85;;;;;;;3.92;100.00;99736.00;5090592;28;20135;-41
2023/12/11 10:54:42;;;;;;;46.10;24.35;;;;;;;3.87;100.00;99736.22;5089397;28;20105;-39
2023/12/11 10:57:14;;;;;;;44.95;24.40;;;;;;;3.82;100.00;99738.16;5090519;28;20043;-41
2023/12/11 10:59:44;;;;;;;49.53;26.10;;;;;;;3.71;100.00;99754.44;5088771;28;20407;-40
2023/12/11 11:02:16;;;;;;;51.10;25.67;;;;;;;3.85;100.00;99759.13;5089938;28;20048;-45
2023/12/11 11:04:46;;;;;;;48.90;25.42;;;;;;;3.92;100.00;99755.34;5089848;28;20109;-41
2023/12/11 11:07:23;;;;;;;46.53;25.13;;;;;;;3.93;100.00;99759.69;5093793;28;20091;-41
2023/12/11 11:10:09;;;;;;;49.53;26.13;;;;;;;3.83;100.00;99755.72;5093417;28;20127;-42
2023/12/11 11:12:43;;;;;;;46.88;25.60;;;;;;;3.94;100.00;99752.63;5093272;28;20139;-40
2023/12/11 11:15:11;;;;;;;46.95;26.08;;;;;;;3.90;100.00;99746.63;5091744;28;20500;-41
2023/12/11 11:18:00;;;;;;;47.83;25.92;;;;;;;3.98;100.00;99734.00;5091906;28;20059;-41
2023/12/11 11:20:30;;;;;;;49.05;24.63;;;;;;;4.08;100.00;99730.97;5092063;28;20058;-41
2023/12/11 11:23:26;;;;;;;49.58;26.15;;;;;;;4.03;100.00;99718.81;5093818;28;20416;-42
2023/12/11 11:25:56;;;;;;;42.97;24.05;;;;;;;4.26;100.00;99704.66;5092057;28;20481;-40